sensor_id;sensor_type;location;lat;lon;timestamp;pressure;altitude;pressure_sealevel;temperature;humidity
47913;BME280;33676;51.006;17.180;2024-02-28T00:00:06;100209.84;;;8.40;96.80
47913;BME280;33676;51.006;17.180;2024-02-28T00:02:33;100214.66;;;8.41;96.87
47913;BME280;33676;51.006;17.180;2024-02-28T00:05:00;100215.98;;;8.42;96.99
47913;BME280;33676;51.006;17.180;2024-02-28T00:07:27;100223.79;;;8.43;96.96
47913;BME280;33676;51.006;17.180;2024-02-28T00:09:55;100226.85;;;8.44;97.00
47913;BME280;33676;51.006;17.180;2024-02-28T00:12:24;100224.83;;;8.43;97.00
47913;BME280;33676;51.006;17.180;2024-02-28T00:14:54;100225.52;;;8.43;97.06
47913;BME280;33676;51.006;17.180;2024-02-28T00:17:22;100223.20;;;8.41;96.91
47913;BME280;33676;51.006;17.180;2024-02-28T00:19:49;100224.09;;;8.41;97.08
47913;BME280;33676;51.006;17.180;2024-02-28T00:22:16;100225.94;;;8.39;97.18
47913;BME280;33676;51.006;17.180;2024-02-28T00:24:43;100229.61;;;8.39;97.23
47913;BME280;33676;51.006;17.180;2024-02-28T00:27:10;100230.65;;;8.37;97.11
47913;BME280;33676;51.006;17.180;2024-02-28T00:29:38;100234.06;;;8.33;96.90
47913;BME280;33676;51.006;17.180;2024-02-28T00:32:06;100236.10;;;8.28;97.03
47913;BME280;33676;51.006;17.180;2024-02-28T00:34:33;100238.48;;;8.24;96.93
47913;BME280;33676;51.006;17.180;2024-02-28T00:37:00;100234.14;;;8.19;96.95
47913;BME280;33676;51.006;17.180;2024-02-28T00:39:27;100233.55;;;8.14;96.91
47913;BME280;33676;51.006;17.180;2024-02-28T00:41:54;100234.53;;;8.08;96.79
47913;BME280;33676;51.006;17.180;2024-02-28T00:44:22;100234.03;;;8.03;96.86
47913;BME280;33676;51.006;17.180;2024-02-28T00:46:49;100237.02;;;7.97;96.86
47913;BME280;33676;51.006;17.180;2024-02-28T00:49:16;100231.74;;;7.92;97.02
47913;BME280;33676;51.006;17.180;2024-02-28T00:51:43;100236.77;;;7.88;97.01
47913;BME280;33676;51.006;17.180;2024-02-28T00:54:10;100231.10;;;7.84;97.33
47913;BME280;33676;51.006;17.180;2024-02-28T00:56:37;100232.61;;;7.82;97.40
47913;BME280;33676;51.006;17.180;2024-02-28T00:59:05;100231.13;;;7.79;97.54
47913;BME280;33676;51.006;17.180;2024-02-28T01:01:33;100233.48;;;7.78;97.55
47913;BME280;33676;51.006;17.180;2024-02-28T01:04:00;100231.21;;;7.75;97.59
47913;BME280;33676;51.006;17.180;2024-02-28T01:06:27;100235.77;;;7.75;97.88
47913;BME280;33676;51.006;17.180;2024-02-28T01:08:54;100231.52;;;7.76;98.05
47913;BME280;33676;51.006;17.180;2024-02-28T01:11:21;100230.84;;;7.78;98.31
47913;BME280;33676;51.006;17.180;2024-02-28T01:13:49;100232.15;;;7.79;98.20
47913;BME280;33676;51.006;17.180;2024-02-28T01:16:16;100237.84;;;7.80;98.35
47913;BME280;33676;51.006;17.180;2024-02-28T01:18:43;100240.40;;;7.81;98.39
47913;BME280;33676;51.006;17.180;2024-02-28T01:21:10;100240.29;;;7.80;98.38
47913;BME280;33676;51.006;17.180;2024-02-28T01:23:37;100240.02;;;7.79;98.45
47913;BME280;33676;51.006;17.180;2024-02-28T01:26:05;100239.91;;;7.78;98.50
47913;BME280;33676;51.006;17.180;2024-02-28T01:28:33;100238.84;;;7.78;98.50
47913;BME280;33676;51.006;17.180;2024-02-28T01:31:00;100238.71;;;7.78;98.52
47913;BME280;33676;51.006;17.180;2024-02-28T01:33:28;100239.96;;;7.77;98.59
47913;BME280;33676;51.006;17.180;2024-02-28T01:35:55;100239.86;;;7.76;98.61
47913;BME280;33676;51.006;17.180;2024-02-28T01:38:26;100235.41;;;7.75;98.54
47913;BME280;33676;51.006;17.180;2024-02-28T01:40:53;100238.14;;;7.75;98.82
47913;BME280;33676;51.006;17.180;2024-02-28T01:43:20;100234.62;;;7.76;98.93
47913;BME280;33676;51.006;17.180;2024-02-28T01:45:48;100235.17;;;7.76;98.88
47913;BME280;33676;51.006;17.180;2024-02-28T01:48:16;100234.86;;;7.75;98.92
47913;BME280;33676;51.006;17.180;2024-02-28T01:50:43;100231.19;;;7.73;98.85
47913;BME280;33676;51.006;17.180;2024-02-28T01:53:10;100228.22;;;7.71;98.86
47913;BME280;33676;51.006;17.180;2024-02-28T01:55:40;100223.25;;;7.70;99.11
47913;BME280;33676;51.006;17.180;2024-02-28T01:58:07;100217.63;;;7.70;99.27
47913;BME280;33676;51.006;17.180;2024-02-28T02:00:35;100218.73;;;7.72;99.45
47913;BME280;33676;51.006;17.180;2024-02-28T02:03:03;100222.12;;;7.73;99.59
47913;BME280;33676;51.006;17.180;2024-02-28T02:05:31;100221.00;;;7.74;99.57
47913;BME280;33676;51.006;17.180;2024-02-28T02:07:58;100217.15;;;7.74;99.62
47913;BME280;33676;51.006;17.180;2024-02-28T02:10:27;100216.16;;;7.76;99.63
47913;BME280;33676;51.006;17.180;2024-02-28T02:12:54;100215.90;;;7.78;99.74
47913;BME280;33676;51.006;17.180;2024-02-28T02:15:21;100215.25;;;7.79;99.86
47913;BME280;33676;51.006;17.180;2024-02-28T02:17:49;100217.08;;;7.80;99.79
47913;BME280;33676;51.006;17.180;2024-02-28T02:20:17;100219.60;;;7.82;99.83
47913;BME280;33676;51.006;17.180;2024-02-28T02:22:46;100222.36;;;7.82;99.78
47913;BME280;33676;51.006;17.180;2024-02-28T02:25:14;100216.45;;;7.82;99.76
47913;BME280;33676;51.006;17.180;2024-02-28T02:27:41;100218.81;;;7.81;99.67
47913;BME280;33676;51.006;17.180;2024-02-28T02:30:08;100217.31;;;7.80;99.68
47913;BME280;33676;51.006;17.180;2024-02-28T02:32:36;100218.40;;;7.79;99.70
47913;BME280;33676;51.006;17.180;2024-02-28T02:35:03;100218.16;;;7.80;99.85
47913;BME280;33676;51.006;17.180;2024-02-28T02:37:31;100215.77;;;7.82;100.00
47913;BME280;33676;51.006;17.180;2024-02-28T02:39:58;100216.32;;;7.84;100.00
47913;BME280;33676;51.006;17.180;2024-02-28T02:42:25;100212.83;;;7.87;100.00
47913;BME280;33676;51.006;17.180;2024-02-28T02:44:52;100212.15;;;7.89;100.00
47913;BME280;33676;51.006;17.180;2024-02-28T02:47:19;100212.91;;;7.91;100.00
47913;BME280;33676;51.006;17.180;2024-02-28T02:49:47;100214.59;;;7.91;100.00
47913;BME280;33676;51.006;17.180;2024-02-28T02:52:14;100210.33;;;7.92;100.00
47913;BME280;33676;51.006;17.180;2024-02-28T02:54:41;100210.36;;;7.95;100.00
47913;BME280;33676;51.006;17.180;2024-02-28T02:57:08;100212.60;;;7.95;100.00
47913;BME280;33676;51.006;17.180;2024-02-28T02:59:35;100214.75;;;7.94;100.00
47913;BME280;33676;51.006;17.180;2024-02-28T03:02:03;100214.73;;;7.94;100.00
47913;BME280;33676;51.006;17.180;2024-02-28T03:04:30;100220.13;;;7.94;100.00
47913;BME280;33676;51.006;17.180;2024-02-28T03:06:58;100221.41;;;7.93;100.00
47913;BME280;33676;51.006;17.180;2024-02-28T03:09:25;100219.57;;;7.92;100.00
47913;BME280;33676;51.006;17.180;2024-02-28T03:11:52;100218.90;;;7.92;100.00
47913;BME280;33676;51.006;17.180;2024-02-28T03:14:19;100219.61;;;7.92;100.00
47913;BME280;33676;51.006;17.180;2024-02-28T03:16:49;100219.82;;;7.91;100.00
47913;BME280;33676;51.006;17.180;2024-02-28T03:19:16;100221.73;;;7.91;100.00
47913;BME280;33676;51.006;17.180;2024-02-28T03:21:43;100223.35;;;7.90;100.00
47913;BME280;33676;51.006;17.180;2024-02-28T03:24:11;100227.40;;;7.90;100.00
47913;BME280;33676;51.006;17.180;2024-02-28T03:26:38;100225.79;;;7.88;100.00
47913;BME280;33676;51.006;17.180;2024-02-28T03:29:05;100230.11;;;7.88;100.00
47913;BME280;33676;51.006;17.180;2024-02-28T03:31:32;100230.78;;;7.89;100.00
47913;BME280;33676;51.006;17.180;2024-02-28T03:33:59;100230.16;;;7.88;100.00
47913;BME280;33676;51.006;17.180;2024-02-28T03:36:30;100230.22;;;7.87;100.00
47913;BME280;33676;51.006;17.180;2024-02-28T03:38:57;100231.29;;;7.87;100.00
47913;BME280;33676;51.006;17.180;2024-02-28T03:41:24;100232.89;;;7.86;100.00
47913;BME280;33676;51.006;17.180;2024-02-28T03:43:51;100235.19;;;7.86;100.00
47913;BME280;33676;51.006;17.180;2024-02-28T03:46:19;100236.77;;;7.85;100.00
47913;BME280;33676;51.006;17.180;2024-02-28T03:48:46;100240.77;;;7.85;100.00
47913;BME280;33676;51.006;17.180;2024-02-28T03:51:13;100236.45;;;7.85;100.00
47913;BME280;33676;51.006;17.180;2024-02-28T03:53:40;100236.72;;;7.83;100.00
47913;BME280;33676;51.006;17.180;2024-02-28T03:56:08;100239.61;;;7.82;100.00
47913;BME280;33676;51.006;17.180;2024-02-28T03:58:35;100239.16;;;7.81;100.00
47913;BME280;33676;51.006;17.180;2024-02-28T04:01:03;100239.33;;;7.79;100.00
47913;BME280;33676;51.006;17.180;2024-02-28T04:03:30;100239.46;;;7.77;100.00
47913;BME280;33676;51.006;17.180;2024-02-28T04:05:57;100239.23;;;7.75;100.00
47913;BME280;33676;51.006;17.180;2024-02-28T04:08:25;100246.35;;;7.75;100.00
47913;BME280;33676;51.006;17.180;2024-02-28T04:10:52;100245.67;;;7.75;100.00
47913;BME280;33676;51.006;17.180;2024-02-28T04:13:19;100250.02;;;7.75;100.00
47913;BME280;33676;51.006;17.180;2024-02-28T04:15:47;100250.38;;;7.75;100.00
47913;BME280;33676;51.006;17.180;2024-02-28T04:18:14;100247.77;;;7.75;100.00
47913;BME280;33676;51.006;17.180;2024-02-28T04:20:41;100248.29;;;7.75;100.00
47913;BME280;33676;51.006;17.180;2024-02-28T04:23:08;100254.55;;;7.75;100.00
47913;BME280;33676;51.006;17.180;2024-02-28T04:25:35;100257.52;;;7.75;100.00
47913;BME280;33676;51.006;17.180;2024-02-28T04:28:03;100255.61;;;7.75;100.00
47913;BME280;33676;51.006;17.180;2024-02-28T04:30:30;100258.90;;;7.75;100.00
47913;BME280;33676;51.006;17.180;2024-02-28T04:32:58;100261.23;;;7.74;100.00
47913;BME280;33676;51.006;17.180;2024-02-28T04:35:25;100257.48;;;7.72;100.00
47913;BME280;33676;51.006;17.180;2024-02-28T04:37:52;100261.96;;;7.71;100.00
47913;BME280;33676;51.006;17.180;2024-02-28T04:40:19;100258.83;;;7.71;100.00
47913;BME280;33676;51.006;17.180;2024-02-28T04:42:46;100261.46;;;7.70;100.00
47913;BME280;33676;51.006;17.180;2024-02-28T04:45:13;100263.95;;;7.69;100.00
47913;BME280;33676;51.006;17.180;2024-02-28T04:47:41;100260.83;;;7.67;100.00
47913;BME280;33676;51.006;17.180;2024-02-28T04:50:12;100262.68;;;7.65;100.00
47913;BME280;33676;51.006;17.180;2024-02-28T04:52:39;100265.84;;;7.62;100.00
47913;BME280;33676;51.006;17.180;2024-02-28T04:55:07;100269.83;;;7.62;100.00
47913;BME280;33676;51.006;17.180;2024-02-28T04:57:34;100268.98;;;7.62;100.00
47913;BME280;33676;51.006;17.180;2024-02-28T05:00:01;100272.25;;;7.62;100.00
47913;BME280;33676;51.006;17.180;2024-02-28T05:02:30;100275.89;;;7.62;100.00
47913;BME280;33676;51.006;17.180;2024-02-28T05:04:58;100277.66;;;7.62;100.00
47913;BME280;33676;51.006;17.180;2024-02-28T05:07:26;100285.90;;;7.61;100.00
47913;BME280;33676;51.006;17.180;2024-02-28T05:09:53;100284.93;;;7.60;100.00
47913;BME280;33676;51.006;17.180;2024-02-28T05:12:20;100287.40;;;7.59;100.00
47913;BME280;33676;51.006;17.180;2024-02-28T05:14:47;100289.73;;;7.58;100.00
47913;BME280;33676;51.006;17.180;2024-02-28T05:17:17;100294.83;;;7.58;100.00
47913;BME280;33676;51.006;17.180;2024-02-28T05:19:44;100297.30;;;7.57;100.00
47913;BME280;33676;51.006;17.180;2024-02-28T05:22:11;100298.11;;;7.55;100.00
47913;BME280;33676;51.006;17.180;2024-02-28T05:24:38;100294.69;;;7.54;100.00
47913;BME280;33676;51.006;17.180;2024-02-28T05:27:06;100294.58;;;7.53;100.00
47913;BME280;33676;51.006;17.180;2024-02-28T05:29:33;100301.21;;;7.53;100.00
47913;BME280;33676;51.006;17.180;2024-02-28T05:32:00;100306.95;;;7.53;100.00
47913;BME280;33676;51.006;17.180;2024-02-28T05:34:27;100305.59;;;7.52;100.00
47913;BME280;33676;51.006;17.180;2024-02-28T05:36:54;100308.52;;;7.50;100.00
47913;BME280;33676;51.006;17.180;2024-02-28T05:39:21;100309.61;;;7.50;100.00
47913;BME280;33676;51.006;17.180;2024-02-28T05:41:48;100313.14;;;7.49;100.00
47913;BME280;33676;51.006;17.180;2024-02-28T05:44:16;100314.52;;;7.49;100.00
47913;BME280;33676;51.006;17.180;2024-02-28T05:46:43;100317.20;;;7.48;100.00
47913;BME280;33676;51.006;17.180;2024-02-28T05:49:10;100315.36;;;7.47;100.00
47913;BME280;33676;51.006;17.180;2024-02-28T05:51:37;100315.61;;;7.46;100.00
47913;BME280;33676;51.006;17.180;2024-02-28T05:54:04;100317.21;;;7.45;100.00
47913;BME280;33676;51.006;17.180;2024-02-28T05:56:31;100323.67;;;7.45;100.00
47913;BME280;33676;51.006;17.180;2024-02-28T05:58:59;100320.43;;;7.44;100.00
47913;BME280;33676;51.006;17.180;2024-02-28T06:01:26;100323.66;;;7.42;100.00
47913;BME280;33676;51.006;17.180;2024-02-28T06:03:53;100327.50;;;7.42;100.00
47913;BME280;33676;51.006;17.180;2024-02-28T06:06:20;100329.95;;;7.42;100.00
47913;BME280;33676;51.006;17.180;2024-02-28T06:08:48;100326.42;;;7.43;100.00
47913;BME280;33676;51.006;17.180;2024-02-28T06:11:15;100330.02;;;7.43;100.00
47913;BME280;33676;51.006;17.180;2024-02-28T06:13:43;100337.62;;;7.44;100.00
47913;BME280;33676;51.006;17.180;2024-02-28T06:16:14;100338.48;;;7.44;100.00
47913;BME280;33676;51.006;17.180;2024-02-28T06:18:42;100338.12;;;7.44;100.00
47913;BME280;33676;51.006;17.180;2024-02-28T06:21:09;100339.98;;;7.45;100.00
47913;BME280;33676;51.006;17.180;2024-02-28T06:23:36;100342.27;;;7.48;100.00
47913;BME280;33676;51.006;17.180;2024-02-28T06:26:03;100340.06;;;7.49;100.00
47913;BME280;33676;51.006;17.180;2024-02-28T06:28:30;100342.72;;;7.51;100.00
47913;BME280;33676;51.006;17.180;2024-02-28T06:30:59;100346.20;;;7.54;100.00
47913;BME280;33676;51.006;17.180;2024-02-28T06:33:26;100340.09;;;7.57;100.00
47913;BME280;33676;51.006;17.180;2024-02-28T06:35:53;100343.77;;;7.59;100.00
47913;BME280;33676;51.006;17.180;2024-02-28T06:38:20;100344.38;;;7.63;100.00
47913;BME280;33676;51.006;17.180;2024-02-28T06:40:48;100349.42;;;7.66;100.00
47913;BME280;33676;51.006;17.180;2024-02-28T06:43:15;100354.48;;;7.69;100.00
47913;BME280;33676;51.006;17.180;2024-02-28T06:45:42;100359.17;;;7.71;100.00
47913;BME280;33676;51.006;17.180;2024-02-28T06:48:10;100364.95;;;7.74;100.00
47913;BME280;33676;51.006;17.180;2024-02-28T06:50:37;100371.65;;;7.75;100.00
47913;BME280;33676;51.006;17.180;2024-02-28T06:53:04;100370.90;;;7.76;100.00
47913;BME280;33676;51.006;17.180;2024-02-28T06:55:31;100375.13;;;7.78;100.00
47913;BME280;33676;51.006;17.180;2024-02-28T06:57:58;100379.80;;;7.80;100.00
47913;BME280;33676;51.006;17.180;2024-02-28T07:00:26;100376.66;;;7.83;100.00
47913;BME280;33676;51.006;17.180;2024-02-28T07:02:53;100377.45;;;7.87;100.00
47913;BME280;33676;51.006;17.180;2024-02-28T07:05:20;100374.94;;;7.91;100.00
47913;BME280;33676;51.006;17.180;2024-02-28T07:07:47;100380.21;;;7.95;100.00
47913;BME280;33676;51.006;17.180;2024-02-28T07:10:16;100380.67;;;7.99;100.00
47913;BME280;33676;51.006;17.180;2024-02-28T07:12:43;100384.38;;;8.03;100.00
47913;BME280;33676;51.006;17.180;2024-02-28T07:15:12;100384.31;;;8.07;100.00
47913;BME280;33676;51.006;17.180;2024-02-28T07:17:40;100390.08;;;8.12;100.00
47913;BME280;33676;51.006;17.180;2024-02-28T07:20:08;100388.08;;;8.19;100.00
47913;BME280;33676;51.006;17.180;2024-02-28T07:22:35;100391.20;;;8.24;100.00
47913;BME280;33676;51.006;17.180;2024-02-28T07:25:04;100393.55;;;8.28;100.00
47913;BME280;33676;51.006;17.180;2024-02-28T07:27:32;100397.89;;;8.34;100.00
47913;BME280;33676;51.006;17.180;2024-02-28T07:29:59;100401.48;;;8.40;100.00
47913;BME280;33676;51.006;17.180;2024-02-28T07:32:26;100403.38;;;8.45;100.00
47913;BME280;33676;51.006;17.180;2024-02-28T07:34:53;100411.23;;;8.50;100.00
47913;BME280;33676;51.006;17.180;2024-02-28T07:37:20;100414.52;;;8.53;100.00
47913;BME280;33676;51.006;17.180;2024-02-28T07:39:47;100416.06;;;8.56;100.00
47913;BME280;33676;51.006;17.180;2024-02-28T07:42:15;100420.97;;;8.58;100.00
47913;BME280;33676;51.006;17.180;2024-02-28T07:44:45;100419.94;;;8.60;100.00
47913;BME280;33676;51.006;17.180;2024-02-28T07:47:12;100423.61;;;8.58;100.00
47913;BME280;33676;51.006;17.180;2024-02-28T07:49:43;100422.34;;;8.56;100.00
47913;BME280;33676;51.006;17.180;2024-02-28T07:52:10;100420.08;;;8.56;100.00
47913;BME280;33676;51.006;17.180;2024-02-28T07:54:42;100418.16;;;8.56;100.00
47913;BME280;33676;51.006;17.180;2024-02-28T07:57:14;100421.02;;;8.57;100.00
47913;BME280;33676;51.006;17.180;2024-02-28T07:59:42;100422.34;;;8.58;100.00
47913;BME280;33676;51.006;17.180;2024-02-28T08:02:10;100423.94;;;8.60;100.00
47913;BME280;33676;51.006;17.180;2024-02-28T08:04:39;100423.75;;;8.61;100.00
47913;BME280;33676;51.006;17.180;2024-02-28T08:07:06;100424.88;;;8.62;100.00
47913;BME280;33676;51.006;17.180;2024-02-28T08:09:34;100430.90;;;8.63;100.00
47913;BME280;33676;51.006;17.180;2024-02-28T08:12:01;100429.90;;;8.66;100.00
47913;BME280;33676;51.006;17.180;2024-02-28T08:14:28;100437.62;;;8.68;100.00
47913;BME280;33676;51.006;17.180;2024-02-28T08:16:55;100439.30;;;8.68;100.00
47913;BME280;33676;51.006;17.180;2024-02-28T08:19:23;100440.34;;;8.68;100.00
47913;BME280;33676;51.006;17.180;2024-02-28T08:21:50;100445.55;;;8.69;100.00
47913;BME280;33676;51.006;17.180;2024-02-28T08:24:18;100439.38;;;8.67;100.00
47913;BME280;33676;51.006;17.180;2024-02-28T08:26:46;100442.01;;;8.67;100.00
47913;BME280;33676;51.006;17.180;2024-02-28T08:29:13;100443.30;;;8.68;100.00
47913;BME280;33676;51.006;17.180;2024-02-28T08:31:43;100444.69;;;8.68;100.00
47913;BME280;33676;51.006;17.180;2024-02-28T08:34:10;100446.15;;;8.68;100.00
47913;BME280;33676;51.006;17.180;2024-02-28T08:36:38;100448.70;;;8.68;100.00
47913;BME280;33676;51.006;17.180;2024-02-28T08:39:05;100452.86;;;8.69;100.00
47913;BME280;33676;51.006;17.180;2024-02-28T08:41:33;100447.83;;;8.69;100.00
47913;BME280;33676;51.006;17.180;2024-02-28T08:44:01;100448.77;;;8.67;100.00
47913;BME280;33676;51.006;17.180;2024-02-28T08:46:28;100456.12;;;8.67;100.00
47913;BME280;33676;51.006;17.180;2024-02-28T08:48:55;100461.05;;;8.66;100.00
47913;BME280;33676;51.006;17.180;2024-02-28T08:51:22;100455.68;;;8.66;100.00
47913;BME280;33676;51.006;17.180;2024-02-28T08:53:50;100458.11;;;8.66;100.00
47913;BME280;33676;51.006;17.180;2024-02-28T08:56:19;100454.95;;;8.63;100.00
47913;BME280;33676;51.006;17.180;2024-02-28T08:58:47;100458.85;;;8.62;100.00
47913;BME280;33676;51.006;17.180;2024-02-28T09:01:15;100459.81;;;8.61;100.00
47913;BME280;33676;51.006;17.180;2024-02-28T09:03:42;100455.88;;;8.60;100.00
47913;BME280;33676;51.006;17.180;2024-02-28T09:06:10;100459.54;;;8.60;100.00
47913;BME280;33676;51.006;17.180;2024-02-28T09:08:37;100460.23;;;8.60;100.00
47913;BME280;33676;51.006;17.180;2024-02-28T09:11:04;100459.88;;;8.60;100.00
47913;BME280;33676;51.006;17.180;2024-02-28T09:13:32;100461.77;;;8.60;100.00
47913;BME280;33676;51.006;17.180;2024-02-28T09:15:59;100457.42;;;8.60;100.00
47913;BME280;33676;51.006;17.180;2024-02-28T09:18:26;100459.86;;;8.60;100.00
47913;BME280;33676;51.006;17.180;2024-02-28T09:20:53;100462.09;;;8.60;100.00
47913;BME280;33676;51.006;17.180;2024-02-28T09:23:21;100462.27;;;8.61;100.00
47913;BME280;33676;51.006;17.180;2024-02-28T09:25:48;100464.30;;;8.62;100.00
47913;BME280;33676;51.006;17.180;2024-02-28T09:28:15;100466.73;;;8.64;100.00
47913;BME280;33676;51.006;17.180;2024-02-28T09:30:43;100469.20;;;8.67;100.00
47913;BME280;33676;51.006;17.180;2024-02-28T09:33:19;100473.70;;;8.67;100.00
47913;BME280;33676;51.006;17.180;2024-02-28T09:35:46;100471.98;;;8.67;100.00
47913;BME280;33676;51.006;17.180;2024-02-28T09:38:14;100475.83;;;8.67;100.00
47913;BME280;33676;51.006;17.180;2024-02-28T09:40:41;100478.67;;;8.69;100.00
47913;BME280;33676;51.006;17.180;2024-02-28T09:43:30;100479.05;;;8.71;100.00
47913;BME280;33676;51.006;17.180;2024-02-28T09:46:03;100479.93;;;8.73;100.00
47913;BME280;33676;51.006;17.180;2024-02-28T09:48:31;100483.26;;;8.73;100.00
47913;BME280;33676;51.006;17.180;2024-02-28T09:51:00;100486.33;;;8.71;100.00
47913;BME280;33676;51.006;17.180;2024-02-28T09:53:27;100488.35;;;8.70;100.00
47913;BME280;33676;51.006;17.180;2024-02-28T09:55:55;100493.44;;;8.69;100.00
47913;BME280;33676;51.006;17.180;2024-02-28T09:58:22;100494.31;;;8.69;100.00
47913;BME280;33676;51.006;17.180;2024-02-28T10:00:50;100495.73;;;8.66;100.00
47913;BME280;33676;51.006;17.180;2024-02-28T10:03:18;100500.11;;;8.63;100.00
47913;BME280;33676;51.006;17.180;2024-02-28T10:05:50;100506.38;;;8.60;100.00
47913;BME280;33676;51.006;17.180;2024-02-28T10:08:17;100504.83;;;8.57;100.00
47913;BME280;33676;51.006;17.180;2024-02-28T10:10:46;100506.23;;;8.55;100.00
47913;BME280;33676;51.006;17.180;2024-02-28T10:13:17;100510.17;;;8.53;100.00
47913;BME280;33676;51.006;17.180;2024-02-28T10:15:45;100512.98;;;8.50;100.00
47913;BME280;33676;51.006;17.180;2024-02-28T10:18:12;100514.63;;;8.49;100.00
47913;BME280;33676;51.006;17.180;2024-02-28T10:20:39;100515.85;;;8.46;100.00
47913;BME280;33676;51.006;17.180;2024-02-28T10:23:07;100515.73;;;8.43;100.00
47913;BME280;33676;51.006;17.180;2024-02-28T10:25:46;100518.30;;;8.41;100.00
47913;BME280;33676;51.006;17.180;2024-02-28T10:28:21;100520.26;;;8.37;100.00
47913;BME280;33676;51.006;17.180;2024-02-28T10:30:51;100518.20;;;8.34;100.00
47913;BME280;33676;51.006;17.180;2024-02-28T10:33:18;100522.66;;;8.32;100.00
47913;BME280;33676;51.006;17.180;2024-02-28T10:35:50;100527.58;;;8.29;100.00
47913;BME280;33676;51.006;17.180;2024-02-28T10:38:19;100538.32;;;8.24;100.00
47913;BME280;33676;51.006;17.180;2024-02-28T10:40:48;100537.80;;;8.19;100.00
47913;BME280;33676;51.006;17.180;2024-02-28T10:43:16;100539.42;;;8.16;100.00
47913;BME280;33676;51.006;17.180;2024-02-28T10:45:46;100541.72;;;8.12;100.00
47913;BME280;33676;51.006;17.180;2024-02-28T10:48:33;100541.36;;;8.10;100.00
47913;BME280;33676;51.006;17.180;2024-02-28T10:51:03;100546.01;;;8.08;100.00
47913;BME280;33676;51.006;17.180;2024-02-28T10:53:41;100552.23;;;8.06;100.00
47913;BME280;33676;51.006;17.180;2024-02-28T10:56:11;100553.43;;;8.06;100.00
47913;BME280;33676;51.006;17.180;2024-02-28T10:58:52;100560.19;;;8.07;100.00
47913;BME280;33676;51.006;17.180;2024-02-28T11:01:22;100555.48;;;8.07;100.00
47913;BME280;33676;51.006;17.180;2024-02-28T11:03:50;100559.95;;;8.08;100.00
47913;BME280;33676;51.006;17.180;2024-02-28T11:06:21;100563.98;;;8.07;100.00
47913;BME280;33676;51.006;17.180;2024-02-28T11:08:51;100568.29;;;8.05;100.00
47913;BME280;33676;51.006;17.180;2024-02-28T11:11:22;100570.66;;;8.01;100.00
47913;BME280;33676;51.006;17.180;2024-02-28T11:13:56;100576.63;;;7.96;100.00
47913;BME280;33676;51.006;17.180;2024-02-28T11:16:31;100580.67;;;7.93;100.00
47913;BME280;33676;51.006;17.180;2024-02-28T11:19:01;100580.45;;;7.88;100.00
47913;BME280;33676;51.006;17.180;2024-02-28T11:21:29;100579.33;;;7.84;100.00
47913;BME280;33676;51.006;17.180;2024-02-28T11:24:01;100580.17;;;7.79;100.00
47913;BME280;33676;51.006;17.180;2024-02-28T11:26:28;100583.11;;;7.77;100.00
47913;BME280;33676;51.006;17.180;2024-02-28T11:28:56;100580.89;;;7.74;100.00
47913;BME280;33676;51.006;17.180;2024-02-28T11:31:23;100585.61;;;7.71;100.00
47913;BME280;33676;51.006;17.180;2024-02-28T11:33:50;100582.98;;;7.68;100.00
47913;BME280;33676;51.006;17.180;2024-02-28T11:36:17;100586.31;;;7.68;100.00
47913;BME280;33676;51.006;17.180;2024-02-28T11:38:46;100587.67;;;7.68;100.00
47913;BME280;33676;51.006;17.180;2024-02-28T11:41:13;100591.50;;;7.68;100.00
47913;BME280;33676;51.006;17.180;2024-02-28T11:43:40;100591.16;;;7.68;100.00
47913;BME280;33676;51.006;17.180;2024-02-28T11:46:18;100585.48;;;7.67;100.00
47913;BME280;33676;51.006;17.180;2024-02-28T11:48:46;100589.02;;;7.66;100.00
47913;BME280;33676;51.006;17.180;2024-02-28T11:51:14;100587.27;;;7.66;100.00
47913;BME280;33676;51.006;17.180;2024-02-28T11:53:41;100586.87;;;7.67;100.00
47913;BME280;33676;51.006;17.180;2024-02-28T11:56:08;100590.75;;;7.69;100.00
47913;BME280;33676;51.006;17.180;2024-02-28T11:58:35;100591.11;;;7.72;100.00
47913;BME280;33676;51.006;17.180;2024-02-28T12:01:03;100595.11;;;7.74;100.00
47913;BME280;33676;51.006;17.180;2024-02-28T12:03:30;100597.27;;;7.76;100.00
47913;BME280;33676;51.006;17.180;2024-02-28T12:05:57;100598.95;;;7.77;100.00
47913;BME280;33676;51.006;17.180;2024-02-28T12:08:24;100603.09;;;7.78;100.00
47913;BME280;33676;51.006;17.180;2024-02-28T12:11:06;100600.81;;;7.78;100.00
47913;BME280;33676;51.006;17.180;2024-02-28T12:13:34;100606.14;;;7.79;100.00
47913;BME280;33676;51.006;17.180;2024-02-28T12:16:01;100602.73;;;7.80;100.00
47913;BME280;33676;51.006;17.180;2024-02-28T12:18:29;100598.98;;;7.82;100.00
47913;BME280;33676;51.006;17.180;2024-02-28T12:20:56;100601.35;;;7.83;100.00
47913;BME280;33676;51.006;17.180;2024-02-28T12:23:23;100599.24;;;7.83;100.00
47913;BME280;33676;51.006;17.180;2024-02-28T12:25:51;100598.30;;;7.84;100.00
47913;BME280;33676;51.006;17.180;2024-02-28T12:28:18;100602.35;;;7.86;100.00
47913;BME280;33676;51.006;17.180;2024-02-28T12:30:45;100601.16;;;7.86;100.00
47913;BME280;33676;51.006;17.180;2024-02-28T12:33:12;100602.77;;;7.85;100.00
47913;BME280;33676;51.006;17.180;2024-02-28T12:35:40;100597.16;;;7.83;100.00
47913;BME280;33676;51.006;17.180;2024-02-28T12:38:08;100599.52;;;7.81;100.00
47913;BME280;33676;51.006;17.180;2024-02-28T12:40:36;100600.34;;;7.80;100.00
47913;BME280;33676;51.006;17.180;2024-02-28T12:43:03;100598.83;;;7.76;100.00
47913;BME280;33676;51.006;17.180;2024-02-28T12:45:30;100600.05;;;7.73;100.00